Kendall, Florida
Current Conditions -  °F | °C
As of 11:53 PM on Monday 26 Jan 2015 (Local Time) from KTMB Reporting Station
Clear Clear  
Wind Chill: 54°   Ceiling: Unl
Heat Index: 54°   Visibility: 10mi
Dew Point: 50°   Wind: 5mph
Humidity: 86%   Direction: 300°WNW
Pressure: 30"   Gusts: NA
Location:  25.65°N, 80.33°W
Report Text: KTMB 270453Z AUTO 30004KT 10SM CLR 12/10 A3000 RMK AO2 SLP159 T01220100 402500106
Loading
Personal Weather Stations






























Interactive Weather Map New forecast layout! Learn more

10-Day Weather Forecast

Advertisements
Track Severe Weather on mobile